YV3077 SVMT-SVBC
Flight info
| Callsign | YV3077 |
|---|---|
| Flight time | 0h 39m |
| Altitude | 10500 |
| Route | DCT |
| Aircraft | PA31/L-SDFG/C |
Departure
| Time | 2026-04-17 16:35 |
|---|---|
| Airport | José Tadeo Monagas International Airport (SVMT) |
Arrival
| Time | 2026-04-17 17:14 |
|---|---|
| Airport | General José Antonio Anzoategui International Airport (SVBC) |
| Time | Latitude | Longitude | Altitude | Speed | Heading |
|---|---|---|---|---|---|
| 2026-04-17 16:29 | 9.74737 | -63.15746 | 225 ft | 0 kts | 47° |
| 2026-04-17 16:32 | 9.74739 | -63.15744 | 225 ft | 3 kts | 47° |
| 2026-04-17 16:32 | 9.74722 | -63.15709 | 225 ft | 9 kts | 149° |
| 2026-04-17 16:32 | 9.74668 | -63.15757 | 225 ft | 15 kts | 228° |
| 2026-04-17 16:32 | 9.74587 | -63.15852 | 225 ft | 19 kts | 223° |
| 2026-04-17 16:33 | 9.74490 | -63.15958 | 225 ft | 23 kts | 227° |
| 2026-04-17 16:33 | 9.74393 | -63.16072 | 225 ft | 14 kts | 226° |
| 2026-04-17 16:33 | 9.74339 | -63.16069 | 225 ft | 0 kts | 137° |
| 2026-04-17 16:34 | 9.74320 | -63.16051 | 225 ft | 11 kts | 137° |
| 2026-04-17 16:34 | 9.74408 | -63.15907 | 225 ft | 56 kts | 49° |
| 2026-04-17 16:34 | 9.74786 | -63.15475 | 239 ft | 98 kts | 51° |
| 2026-04-17 16:34 | 9.75245 | -63.14913 | 443 ft | 107 kts | 51° |
| 2026-04-17 16:35 | 9.75717 | -63.14311 | 687 ft | 112 kts | 51° |
| 2026-04-17 16:35 | 9.76324 | -63.13828 | 913 ft | 116 kts | 26° |
| 2026-04-17 16:35 | 9.77160 | -63.13733 | 1049 ft | 129 kts | 352° |
| 2026-04-17 16:35 | 9.77942 | -63.14242 | 1196 ft | 142 kts | 307° |
| 2026-04-17 16:36 | 9.78118 | -63.15209 | 1382 ft | 146 kts | 257° |
| 2026-04-17 16:36 | 9.77636 | -63.16106 | 1569 ft | 146 kts | 232° |
| 2026-04-17 16:36 | 9.77028 | -63.16935 | 1761 ft | 148 kts | 230° |
| 2026-04-17 16:36 | 9.76395 | -63.17776 | 1955 ft | 149 kts | 231° |
| 2026-04-17 16:37 | 9.75835 | -63.18678 | 2144 ft | 151 kts | 238° |
| 2026-04-17 16:37 | 9.75310 | -63.19596 | 2338 ft | 151 kts | 238° |
| 2026-04-17 16:37 | 9.74785 | -63.20515 | 2535 ft | 152 kts | 239° |
| 2026-04-17 16:37 | 9.74397 | -63.21517 | 2729 ft | 152 kts | 250° |
| 2026-04-17 16:38 | 9.74049 | -63.22536 | 2932 ft | 153 kts | 250° |
| 2026-04-17 16:38 | 9.73707 | -63.23564 | 3134 ft | 154 kts | 252° |
| 2026-04-17 16:38 | 9.73577 | -63.24645 | 3332 ft | 154 kts | 267° |
| 2026-04-17 16:38 | 9.73520 | -63.25721 | 3537 ft | 155 kts | 267° |
| 2026-04-17 16:39 | 9.73466 | -63.26824 | 3747 ft | 155 kts | 267° |
| 2026-04-17 16:39 | 9.73414 | -63.27902 | 3948 ft | 155 kts | 267° |
| 2026-04-17 16:39 | 9.73362 | -63.29008 | 4158 ft | 156 kts | 267° |
| 2026-04-17 16:39 | 9.73317 | -63.30099 | 4371 ft | 156 kts | 268° |
| 2026-04-17 16:40 | 9.73269 | -63.31206 | 4581 ft | 158 kts | 267° |
| 2026-04-17 16:40 | 9.73222 | -63.32328 | 4798 ft | 159 kts | 267° |
| 2026-04-17 16:40 | 9.73178 | -63.33438 | 5013 ft | 160 kts | 267° |
| 2026-04-17 16:40 | 9.73136 | -63.34584 | 5208 ft | 162 kts | 268° |
| 2026-04-17 16:41 | 9.73094 | -63.35734 | 5403 ft | 165 kts | 267° |
| 2026-04-17 16:41 | 9.73053 | -63.36892 | 5584 ft | 167 kts | 267° |
| 2026-04-17 16:41 | 9.73013 | -63.38014 | 5761 ft | 168 kts | 267° |
| 2026-04-17 16:41 | 9.72974 | -63.39200 | 5947 ft | 169 kts | 267° |
| 2026-04-17 16:42 | 9.72935 | -63.40383 | 6131 ft | 169 kts | 267° |
| 2026-04-17 16:42 | 9.72893 | -63.41589 | 6314 ft | 169 kts | 267° |
| 2026-04-17 16:42 | 9.72852 | -63.42777 | 6500 ft | 170 kts | 267° |
| 2026-04-17 16:42 | 9.72813 | -63.43979 | 6694 ft | 170 kts | 268° |
| 2026-04-17 16:43 | 9.72772 | -63.45182 | 6883 ft | 171 kts | 267° |
| 2026-04-17 16:43 | 9.72732 | -63.46386 | 7061 ft | 172 kts | 267° |
| 2026-04-17 16:43 | 9.72693 | -63.47607 | 7231 ft | 174 kts | 267° |
| 2026-04-17 16:43 | 9.72657 | -63.48829 | 7398 ft | 175 kts | 267° |
| 2026-04-17 16:44 | 9.72623 | -63.50061 | 7570 ft | 176 kts | 267° |
| 2026-04-17 16:44 | 9.72594 | -63.51305 | 7730 ft | 177 kts | 267° |
| 2026-04-17 16:44 | 9.72565 | -63.52565 | 7888 ft | 178 kts | 267° |
| 2026-04-17 16:44 | 9.72538 | -63.53811 | 8049 ft | 178 kts | 267° |
| 2026-04-17 16:45 | 9.72512 | -63.55072 | 8234 ft | 178 kts | 268° |
| 2026-04-17 16:45 | 9.72490 | -63.56324 | 8413 ft | 179 kts | 268° |
| 2026-04-17 16:45 | 9.72468 | -63.57576 | 8590 ft | 179 kts | 267° |
| 2026-04-17 16:45 | 9.72450 | -63.58846 | 8751 ft | 179 kts | 267° |
| 2026-04-17 16:46 | 9.72430 | -63.60113 | 8919 ft | 180 kts | 267° |
| 2026-04-17 16:46 | 9.72377 | -63.61383 | 9107 ft | 180 kts | 265° |
| 2026-04-17 16:46 | 9.72318 | -63.62642 | 9280 ft | 179 kts | 265° |
| 2026-04-17 16:46 | 9.72260 | -63.63901 | 9458 ft | 179 kts | 265° |
| 2026-04-17 16:47 | 9.72205 | -63.65163 | 9626 ft | 180 kts | 265° |
| 2026-04-17 16:47 | 9.72145 | -63.66423 | 9810 ft | 179 kts | 265° |
| 2026-04-17 16:47 | 9.72085 | -63.67686 | 9983 ft | 179 kts | 265° |
| 2026-04-17 16:47 | 9.72026 | -63.68930 | 10167 ft | 178 kts | 265° |
| 2026-04-17 16:48 | 9.71970 | -63.70185 | 10337 ft | 177 kts | 265° |
| 2026-04-17 16:48 | 9.71907 | -63.71438 | 10432 ft | 182 kts | 265° |
| 2026-04-17 16:48 | 9.71835 | -63.72737 | 10415 ft | 185 kts | 265° |
| 2026-04-17 16:48 | 9.71763 | -63.74039 | 10426 ft | 184 kts | 265° |
| 2026-04-17 16:49 | 9.71692 | -63.75345 | 10425 ft | 184 kts | 265° |
| 2026-04-17 16:49 | 9.71619 | -63.76631 | 10423 ft | 184 kts | 265° |
| 2026-04-17 16:49 | 9.71545 | -63.77936 | 10431 ft | 184 kts | 265° |
| 2026-04-17 16:49 | 9.71472 | -63.79218 | 10437 ft | 183 kts | 265° |
| 2026-04-17 16:50 | 9.71396 | -63.80517 | 10433 ft | 184 kts | 265° |
| 2026-04-17 16:50 | 9.71322 | -63.81815 | 10437 ft | 184 kts | 265° |
| 2026-04-17 16:50 | 9.71248 | -63.83099 | 10430 ft | 184 kts | 265° |
| 2026-04-17 16:50 | 9.71177 | -63.84390 | 10426 ft | 183 kts | 265° |
| 2026-04-17 16:51 | 9.71108 | -63.85669 | 10436 ft | 183 kts | 265° |
| 2026-04-17 16:51 | 9.71037 | -63.86967 | 10433 ft | 183 kts | 265° |
| 2026-04-17 16:51 | 9.70967 | -63.88245 | 10433 ft | 183 kts | 265° |
| 2026-04-17 16:51 | 9.70894 | -63.89541 | 10437 ft | 182 kts | 265° |
| 2026-04-17 16:52 | 9.70820 | -63.90822 | 10444 ft | 183 kts | 265° |
| 2026-04-17 16:52 | 9.70751 | -63.92108 | 10449 ft | 183 kts | 265° |
| 2026-04-17 16:52 | 9.70684 | -63.93402 | 10446 ft | 183 kts | 265° |
| 2026-04-17 16:52 | 9.70616 | -63.94687 | 10461 ft | 182 kts | 265° |
| 2026-04-17 16:53 | 9.70548 | -63.95965 | 10467 ft | 183 kts | 266° |
| 2026-04-17 16:53 | 9.70485 | -63.97250 | 10454 ft | 183 kts | 265° |
| 2026-04-17 16:53 | 9.70423 | -63.98552 | 10454 ft | 183 kts | 265° |
| 2026-04-17 16:53 | 9.70360 | -63.99822 | 10452 ft | 183 kts | 265° |
| 2026-04-17 16:54 | 9.70295 | -64.01112 | 10461 ft | 183 kts | 265° |
| 2026-04-17 16:54 | 9.70228 | -64.02406 | 10466 ft | 183 kts | 265° |
| 2026-04-17 16:54 | 9.70483 | -64.03661 | 10455 ft | 183 kts | 294° |
| 2026-04-17 16:54 | 9.71012 | -64.04839 | 10454 ft | 183 kts | 294° |
| 2026-04-17 16:55 | 9.71544 | -64.06008 | 10445 ft | 183 kts | 295° |
| 2026-04-17 16:55 | 9.72077 | -64.07175 | 10452 ft | 183 kts | 295° |
| 2026-04-17 16:55 | 9.72615 | -64.08356 | 10446 ft | 183 kts | 295° |
| 2026-04-17 16:55 | 9.73151 | -64.09527 | 10436 ft | 183 kts | 295° |
| 2026-04-17 16:56 | 9.73678 | -64.10680 | 10250 ft | 182 kts | 295° |
| 2026-04-17 16:56 | 9.74257 | -64.11822 | 10052 ft | 182 kts | 298° |
| 2026-04-17 16:56 | 9.74870 | -64.12942 | 9851 ft | 182 kts | 298° |
| 2026-04-17 16:56 | 9.75488 | -64.14069 | 9653 ft | 182 kts | 298° |
| 2026-04-17 16:57 | 9.76100 | -64.15188 | 9467 ft | 183 kts | 298° |
| 2026-04-17 16:57 | 9.76723 | -64.16328 | 9276 ft | 183 kts | 298° |
| 2026-04-17 16:57 | 9.77331 | -64.17462 | 9097 ft | 183 kts | 298° |
| 2026-04-17 16:57 | 9.77941 | -64.18601 | 8914 ft | 184 kts | 298° |
| 2026-04-17 16:58 | 9.78541 | -64.19736 | 8728 ft | 184 kts | 298° |
| 2026-04-17 16:58 | 9.79140 | -64.20870 | 8553 ft | 183 kts | 298° |
| 2026-04-17 16:58 | 9.79747 | -64.22011 | 8366 ft | 182 kts | 299° |
| 2026-04-17 16:58 | 9.80346 | -64.23144 | 8172 ft | 182 kts | 299° |
| 2026-04-17 16:59 | 9.80930 | -64.24264 | 7992 ft | 181 kts | 298° |
| 2026-04-17 16:59 | 9.81514 | -64.25388 | 7811 ft | 181 kts | 298° |
| 2026-04-17 16:59 | 9.82107 | -64.26530 | 7632 ft | 180 kts | 298° |
| 2026-04-17 16:59 | 9.82691 | -64.27652 | 7454 ft | 180 kts | 298° |
| 2026-04-17 17:00 | 9.83275 | -64.28769 | 7276 ft | 179 kts | 299° |
| 2026-04-17 17:00 | 9.83858 | -64.29891 | 7097 ft | 179 kts | 298° |
| 2026-04-17 17:00 | 9.84431 | -64.31005 | 6919 ft | 179 kts | 299° |
| 2026-04-17 17:00 | 9.85003 | -64.32124 | 6728 ft | 179 kts | 299° |
| 2026-04-17 17:01 | 9.85571 | -64.33246 | 6542 ft | 179 kts | 298° |
| 2026-04-17 17:01 | 9.86139 | -64.34370 | 6345 ft | 178 kts | 299° |
| 2026-04-17 17:01 | 9.86693 | -64.35482 | 6160 ft | 177 kts | 298° |
| 2026-04-17 17:01 | 9.87253 | -64.36597 | 5985 ft | 176 kts | 298° |
| 2026-04-17 17:02 | 9.87811 | -64.37702 | 5804 ft | 176 kts | 298° |
| 2026-04-17 17:02 | 9.88373 | -64.38816 | 5624 ft | 175 kts | 298° |
| 2026-04-17 17:02 | 9.88931 | -64.39912 | 5445 ft | 175 kts | 299° |
| 2026-04-17 17:02 | 9.89470 | -64.40964 | 5270 ft | 175 kts | 298° |
| 2026-04-17 17:03 | 9.90038 | -64.42074 | 5088 ft | 175 kts | 298° |
| 2026-04-17 17:03 | 9.90594 | -64.43148 | 4907 ft | 174 kts | 299° |
| 2026-04-17 17:03 | 9.91155 | -64.44239 | 4730 ft | 173 kts | 298° |
| 2026-04-17 17:03 | 9.91710 | -64.45317 | 4555 ft | 173 kts | 299° |
| 2026-04-17 17:04 | 9.92266 | -64.46401 | 4376 ft | 172 kts | 298° |
| 2026-04-17 17:04 | 9.92825 | -64.47483 | 4193 ft | 172 kts | 298° |
| 2026-04-17 17:04 | 9.93372 | -64.48543 | 4010 ft | 171 kts | 298° |
| 2026-04-17 17:04 | 9.93934 | -64.49615 | 3834 ft | 171 kts | 298° |
| 2026-04-17 17:05 | 9.94489 | -64.50668 | 3661 ft | 170 kts | 298° |
| 2026-04-17 17:05 | 9.95051 | -64.51730 | 3488 ft | 169 kts | 298° |
| 2026-04-17 17:05 | 9.95604 | -64.52769 | 3318 ft | 169 kts | 298° |
| 2026-04-17 17:05 | 9.96166 | -64.53825 | 3148 ft | 168 kts | 299° |
| 2026-04-17 17:06 | 9.96717 | -64.54864 | 2970 ft | 166 kts | 298° |
| 2026-04-17 17:06 | 9.97259 | -64.55886 | 2793 ft | 164 kts | 298° |
| 2026-04-17 17:06 | 9.97799 | -64.56913 | 2619 ft | 163 kts | 298° |
| 2026-04-17 17:06 | 9.98326 | -64.57924 | 2452 ft | 162 kts | 299° |
| 2026-04-17 17:07 | 9.98847 | -64.58927 | 2275 ft | 161 kts | 298° |
| 2026-04-17 17:07 | 9.99372 | -64.59937 | 2113 ft | 159 kts | 298° |
| 2026-04-17 17:07 | 9.99884 | -64.60913 | 1999 ft | 155 kts | 298° |
| 2026-04-17 17:07 | 10.00379 | -64.61865 | 1875 ft | 152 kts | 299° |
| 2026-04-17 17:08 | 10.00876 | -64.62818 | 1746 ft | 150 kts | 298° |
| 2026-04-17 17:08 | 10.01393 | -64.63718 | 1607 ft | 148 kts | 311° |
| 2026-04-17 17:08 | 10.02082 | -64.64487 | 1481 ft | 146 kts | 314° |
| 2026-04-17 17:08 | 10.02768 | -64.65247 | 1361 ft | 145 kts | 315° |
| 2026-04-17 17:09 | 10.03458 | -64.66007 | 1236 ft | 145 kts | 315° |
| 2026-04-17 17:09 | 10.04138 | -64.66758 | 1112 ft | 144 kts | 315° |
| 2026-04-17 17:09 | 10.04809 | -64.67503 | 984 ft | 143 kts | 315° |
| 2026-04-17 17:09 | 10.05477 | -64.68249 | 907 ft | 137 kts | 315° |
| 2026-04-17 17:10 | 10.06091 | -64.68943 | 919 ft | 130 kts | 315° |
| 2026-04-17 17:10 | 10.06675 | -64.69600 | 922 ft | 119 kts | 315° |
| 2026-04-17 17:10 | 10.07209 | -64.70206 | 916 ft | 111 kts | 316° |
| 2026-04-17 17:10 | 10.07725 | -64.70799 | 927 ft | 113 kts | 315° |
| 2026-04-17 17:11 | 10.08272 | -64.71428 | 930 ft | 122 kts | 315° |
| 2026-04-17 17:11 | 10.08852 | -64.72090 | 932 ft | 127 kts | 314° |
| 2026-04-17 17:11 | 10.09443 | -64.72761 | 931 ft | 129 kts | 314° |
| 2026-04-17 17:11 | 10.10053 | -64.73457 | 931 ft | 131 kts | 315° |
| 2026-04-17 17:12 | 10.10729 | -64.74010 | 911 ft | 117 kts | 346° |
| 2026-04-17 17:12 | 10.11423 | -64.73869 | 798 ft | 100 kts | 42° |
| 2026-04-17 17:12 | 10.11850 | -64.73364 | 766 ft | 87 kts | 55° |
| 2026-04-17 17:12 | 10.12200 | -64.72845 | 782 ft | 94 kts | 56° |
| 2026-04-17 17:13 | 10.12551 | -64.72273 | 745 ft | 97 kts | 59° |
| 2026-04-17 17:13 | 10.12809 | -64.71648 | 621 ft | 95 kts | 76° |
| 2026-04-17 17:13 | 10.12832 | -64.70999 | 479 ft | 90 kts | 94° |
| 2026-04-17 17:13 | 10.12565 | -64.70404 | 275 ft | 94 kts | 123° |
| 2026-04-17 17:14 | 10.12084 | -64.69978 | 62 ft | 90 kts | 135° |
| 2026-04-17 17:14 | 10.11682 | -64.69652 | 40 ft | 58 kts | 142° |
| 2026-04-17 17:14 | 10.11409 | -64.69441 | 40 ft | 42 kts | 141° |
| 2026-04-17 17:15 | 10.11023 | -64.69143 | 41 ft | 31 kts | 144° |
| 2026-04-17 17:15 | 10.10831 | -64.68995 | 41 ft | 36 kts | 140° |
| 2026-04-17 17:15 | 10.10740 | -64.68870 | 41 ft | 8 kts | 80° |
| 2026-04-17 17:15 | 10.10750 | -64.68821 | 41 ft | 9 kts | 77° |
| 2026-04-17 17:16 | 10.10759 | -64.68779 | 41 ft | 3 kts | 79° |
| 2026-04-17 17:16 | 10.10759 | -64.68726 | 41 ft | 8 kts | 127° |
| 2026-04-17 17:16 | 10.10751 | -64.68678 | 41 ft | 5 kts | 81° |
| 2026-04-17 17:16 | 10.10772 | -64.68671 | 41 ft | 1 kts | 349° |
| 2026-04-17 17:17 | 10.10773 | -64.68671 | 41 ft | 0 kts | 350° |